| time (UTC) | temp F | wind direction | speed MPH | gust MPH | rain 1hr in | rain 24hr in | rain mn in | humidity % | barometer mb |
| 20260510054529 | 46 | 5 | 5.0 | 15.0 | 0.00 | 0.00 | 0.00 | 70 | 1012.9 |
| 20260510053030 | 46 | 16 | 6.0 | 18.0 | 0.00 | 0.00 | 0.00 | 70 | 1012.6 |
| 20260510051532 | 46 | 360 | 6.0 | 15.0 | 0.00 | 0.00 | 0.00 | 68 | 1012.4 |
| 20260510050030 | 45 | 5 | 5.0 | 12.0 | 0.00 | 0.00 | 0.00 | 69 | 1012.0 |
| 20260510044530 | 43 | 24 | 6.0 | 16.0 | 0.00 | 0.00 | 0.00 | 77 | 1011.6 |
| 20260510043030 | 41 | 0 | 0.0 | 0.0 | 0.00 | 0.00 | 0.00 | 78 | 1011.0 |
| 20260510041529 | 41 | 0 | 0.0 | 0.0 | 0.00 | 0.00 | 0.00 | 77 | 1010.8 |
| 20260510040030 | 42 | 0 | 0.0 | 0.0 | 0.00 | 0.00 | 0.00 | 76 | 1010.6 |
| 20260510034535 | 43 | 0 | 0.0 | 0.0 | 0.00 | 0.00 | 0.00 | 74 | 1010.4 |
| 20260510033034 | 43 | 0 | 0.0 | 0.0 | 0.00 | 0.00 | 0.00 | 73 | 1010.2 |
| 20260510031542 | 44 | 0 | 0.0 | 0.0 | 0.00 | 0.00 | 0.00 | 71 | 1010.2 |
| 20260510030030 | 45 | 0 | 0.0 | 0.0 | 0.00 | 0.00 | 0.00 | 70 | 1009.9 |
| 20260510024541 | 46 | 0 | 0.0 | 0.0 | 0.00 | 0.00 | 0.00 | 67 | 1009.7 |
| 20260510023030 | 47 | 0 | 0.0 | 0.0 | 0.00 | 0.00 | 0.00 | 65 | 1009.5 |
| 20260510021531 | 48 | 0 | 0.0 | 0.0 | 0.00 | 0.00 | 0.00 | 64 | 1009.2 |
| 20260510020030 | 49 | 0 | 0.0 | 2.0 | 0.00 | 0.00 | 0.00 | 61 | 1008.9 |
| 20260510014534 | 51 | 13 | 0.0 | 3.0 | 0.00 | 0.00 | 0.00 | 60 | 1008.5 |
| 20260510013029 | 52 | 13 | 0.0 | 4.0 | 0.00 | 0.00 | 0.00 | 56 | 1008.1 |
| 20260510011538 | 53 | 34 | 2.0 | 7.0 | 0.00 | 0.00 | 0.00 | 53 | 1007.8 |
| 20260510010031 | 54 | 65 | 2.0 | 5.0 | 0.00 | 0.00 | 0.00 | 52 | 1007.4 |
| 20260510004530 | 54 | 22 | 3.0 | 8.0 | 0.00 | 0.00 | 0.00 | 50 | 1007.2 |
| 20260510003055 | 55 | 12 | 4.0 | 13.0 | 0.00 | 0.00 | 0.00 | 49 | 1006.9 |
| 20260510001531 | 56 | 30 | 8.0 | 15.0 | 0.00 | 0.00 | 0.00 | 47 | 1006.6 |
| 20260510000036 | 57 | 42 | 5.0 | 15.0 | 0.00 | 0.00 | 0.00 | 46 | 1006.4 |
| 20260509234530 | 58 | 10 | 8.0 | 15.0 | 0.00 | 0.00 | 0.00 | 44 | 1006.1 |
| 20260509233031 | 60 | 13 | 5.0 | 17.0 | 0.00 | 0.00 | 0.00 | 43 | 1005.9 |
| 20260509231532 | 62 | 360 | 8.0 | 18.0 | 0.00 | 0.00 | 0.00 | 42 | 1005.7 |
| 20260509230034 | 66 | 30 | 7.0 | 17.0 | 0.00 | 0.00 | 0.00 | 38 | 1005.5 |
| 20260509224534 | 68 | 305 | 6.0 | 17.0 | 0.00 | 0.00 | 0.00 | 38 | 1005.1 |
| 20260509223031 | 68 | 299 | 9.0 | 20.0 | 0.00 | 0.00 | 0.00 | 37 | 1004.8 |
| 20260509221531 | 69 | 14 | 8.0 | 18.0 | 0.00 | 0.00 | 0.00 | 39 | 1004.5 |
| 20260509220030 | 69 | 318 | 10.0 | 20.0 | 0.00 | 0.00 | 0.00 | 37 | 1004.3 |
| 20260509214532 | 70 | 321 | 6.0 | 19.0 | 0.00 | 0.00 | 0.00 | 38 | 1003.9 |
| 20260509213032 | 70 | 294 | 5.0 | 16.0 | 0.00 | 0.00 | 0.00 | 33 | 1003.6 |
| 20260509211530 | 72 | 317 | 7.0 | 19.0 | 0.00 | 0.00 | 0.00 | 32 | 1003.4 |
| 20260509210032 | 73 | 336 | 7.0 | 23.0 | 0.00 | 0.00 | 0.00 | 32 | 1003.2 |
| 20260509204531 | 73 | 252 | 10.0 | 24.0 | 0.00 | 0.00 | 0.00 | 33 | 1003.0 |
| 20260509203036 | 74 | 323 | 15.0 | 30.0 | 0.00 | 0.00 | 0.00 | 29 | 1003.0 |
| 20260509201530 | 73 | 295 | 14.0 | 27.0 | 0.00 | 0.00 | 0.00 | 30 | 1002.8 |
| 20260509200030 | 73 | 236 | 8.0 | 20.0 | 0.00 | 0.00 | 0.00 | 34 | 1002.8 |
| 20260509194536 | 74 | 207 | 8.0 | 18.0 | 0.00 | 0.00 | 0.00 | 32 | 1002.7 |
| 20260509193032 | 74 | 340 | 7.0 | 20.0 | 0.00 | 0.00 | 0.00 | 32 | 1002.7 |
| 20260509191532 | 74 | 250 | 7.0 | 20.0 | 0.00 | 0.00 | 0.00 | 35 | 1002.6 |
| 20260509190030 | 72 | 205 | 5.0 | 15.0 | 0.00 | 0.00 | 0.00 | 36 | 1002.7 |
| 20260509184534 | 72 | 250 | 7.0 | 17.0 | 0.00 | 0.00 | 0.00 | 38 | 1002.7 |
| 20260509183033 | 71 | 333 | 8.0 | 18.0 | 0.00 | 0.00 | 0.00 | 36 | 1002.8 |
| 20260509181541 | 69 | 277 | 4.0 | 16.0 | 0.00 | 0.00 | 0.00 | 40 | 1002.8 |
| 20260509180032 | 69 | 250 | 4.0 | 15.0 | 0.00 | 0.00 | 0.00 | 36 | 1002.9 |
| 20260509174531 | 70 | 315 | 5.0 | 14.0 | 0.00 | 0.00 | 0.00 | 37 | 1002.9 |
| 20260509173030 | 69 | 207 | 5.0 | 15.0 | 0.00 | 0.00 | 0.00 | 44 | 1002.9 |
| 20260509171532 | 67 | 305 | 6.0 | 20.0 | 0.00 | 0.00 | 0.00 | 39 | 1003.2 |
| 20260509170032 | 66 | 308 | 6.0 | 12.0 | 0.00 | 0.00 | 0.00 | 39 | 1003.3 |
| 20260509164531 | 67 | 227 | 7.0 | 17.0 | 0.00 | 0.00 | 0.00 | 37 | 1003.4 |
| 20260509163034 | 68 | 254 | 7.0 | 17.0 | 0.00 | 0.00 | 0.00 | 40 | 1003.4 |
| 20260509161534 | 67 | 257 | 3.0 | 11.0 | 0.00 | 0.00 | 0.00 | 46 | 1003.3 |
| 20260509160030 | 67 | 288 | 5.0 | 10.0 | 0.00 | 0.00 | 0.00 | 48 | 1003.0 |
| 20260509154529 | 66 | 178 | 3.0 | 10.0 | 0.00 | 0.00 | 0.00 | 57 | 1002.9 |
| 20260509153030 | 66 | 175 | 2.0 | 11.0 | 0.00 | 0.00 | 0.00 | 54 | 1002.9 |
| 20260509151532 | 65 | 211 | 5.0 | 11.0 | 0.00 | 0.00 | 0.00 | 55 | 1003.1 |
| 20260509150033 | 65 | 230 | 5.0 | 16.0 | 0.00 | 0.00 | 0.00 | 57 | 1002.9 |
| 20260509144538 | 64 | 275 | 3.0 | 11.0 | 0.00 | 0.00 | 0.00 | 63 | 1002.6 |
| 20260509143030 | 63 | 211 | 4.0 | 11.0 | 0.00 | 0.00 | 0.00 | 63 | 1002.6 |
| 20260509141529 | 63 | 186 | 3.0 | 12.0 | 0.00 | 0.00 | 0.00 | 63 | 1002.4 |
| 20260509140033 | 62 | 317 | 2.0 | 14.0 | 0.00 | 0.00 | 0.00 | 67 | 1002.3 |
| 20260509134532 | 61 | 284 | 3.0 | 11.0 | 0.00 | 0.00 | 0.00 | 68 | 1002.4 |
| 20260509133030 | 61 | 235 | 3.0 | 10.0 | 0.00 | 0.00 | 0.00 | 69 | 1002.2 |
| 20260509131529 | 60 | 181 | 3.0 | 14.0 | 0.00 | 0.00 | 0.00 | 72 | 1002.2 |
| 20260509130031 | 59 | 255 | 2.0 | 15.0 | 0.00 | 0.00 | 0.00 | 76 | 1002.4 |
| 20260509124528 | 57 | 207 | 4.0 | 11.0 | 0.00 | 0.00 | 0.00 | 79 | 1002.4 |
| 20260509123030 | 55 | 215 | 5.0 | 11.0 | 0.00 | 0.00 | 0.00 | 81 | 1002.2 |
| 20260509121536 | 54 | 207 | 3.0 | 10.0 | 0.00 | 0.00 | 0.00 | 82 | 1002.1 |
| 20260509120030 | 54 | 191 | 3.0 | 9.0 | 0.00 | 0.00 | 0.00 | 81 | 1002.1 |
| 20260509114529 | 53 | 278 | 3.0 | 9.0 | 0.00 | 0.00 | 0.00 | 81 | 1002.2 |
| 20260509113030 | 53 | 139 | 2.0 | 11.0 | 0.00 | 0.00 | 0.00 | 81 | 1002.1 |
| 20260509111531 | 53 | 239 | 3.0 | 12.0 | 0.00 | 0.00 | 0.00 | 81 | 1001.7 |
| 20260509110034 | 53 | 170 | 4.0 | 12.0 | 0.00 | 0.00 | 0.00 | 81 | 1001.4 |
| 20260509104537 | 53 | 218 | 3.0 | 10.0 | 0.00 | 0.00 | 0.00 | 82 | 1001.4 |
| 20260509103029 | 53 | 196 | 4.0 | 15.0 | 0.00 | 0.00 | 0.00 | 82 | 1001.3 |
| 20260509101534 | 53 | 203 | 3.0 | 11.0 | 0.00 | 0.00 | 0.00 | 82 | 1001.7 |
| 20260509100031 | 53 | 201 | 3.0 | 11.0 | 0.00 | 0.00 | 0.00 | 82 | 1001.7 |
| 20260509094532 | 53 | 195 | 3.0 | 11.0 | 0.00 | 0.00 | 0.00 | 82 | 1001.6 |
| 20260509093043 | 53 | 194 | 6.0 | 15.0 | 0.00 | 0.00 | 0.00 | 82 | 1001.7 |
| 20260509091530 | 53 | 177 | 7.0 | 14.0 | 0.00 | 0.00 | 0.00 | 83 | 1001.8 |
| 20260509090032 | 52 | 200 | 3.0 | 9.0 | 0.00 | 0.00 | 0.00 | 83 | 1002.0 |
| 20260509084543 | 52 | 182 | 5.0 | 18.0 | 0.00 | 0.00 | 0.00 | 83 | 1002.1 |
| 20260509083030 | 52 | 195 | 5.0 | 11.0 | 0.00 | 0.00 | 0.00 | 82 | 1002.1 |
| 20260509081538 | 52 | 220 | 2.0 | 11.0 | 0.00 | 0.00 | 0.00 | 82 | 1002.2 |
| 20260509080041 | 53 | 146 | 4.0 | 11.0 | 0.00 | 0.00 | 0.00 | 82 | 1002.2 |
| 20260509074528 | 53 | 230 | 5.0 | 11.0 | 0.00 | 0.00 | 0.00 | 82 | 1002.3 |
| 20260509073037 | 53 | 173 | 5.0 | 10.0 | 0.00 | 0.00 | 0.00 | 82 | 1002.3 |
| 20260509071530 | 53 | 238 | 5.0 | 12.0 | 0.00 | 0.00 | 0.00 | 84 | 1002.5 |
| 20260509070030 | 52 | 217 | 4.0 | 15.0 | 0.00 | 0.00 | 0.00 | 85 | 1002.9 |
| 20260509064533 | 52 | 208 | 5.0 | 12.0 | 0.00 | 0.00 | 0.00 | 85 | 1003.1 |
| 20260509063031 | 51 | 190 | 3.0 | 10.0 | 0.00 | 0.00 | 0.00 | 85 | 1003.3 |
| 20260509061528 | 51 | 205 | 3.0 | 11.0 | 0.00 | 0.00 | 0.00 | 83 | 1003.5 |
| 20260509060030 | 51 | 0 | 1.0 | 6.0 | 0.00 | 0.00 | 0.00 | 82 | 1003.7 |